Santa Anna, Texas
Current Conditions -  °F | °C
As of 3:15 PM on Thursday 23 Oct 2014 (Local Time) from KCOM Reporting Station
Broken Clouds Broken Clouds  
Wind Chill: 82°   Ceiling: 5000
Heat Index: 82°   Visibility: 10mi
Dew Point: 61°   Wind: 8mph
Humidity: 49%   Direction: 170°S
Pressure: 30.08"   Gusts: NA
Location:  31.74°N, 99.32°W
Report Text: KCOM 232015Z AUTO 17007KT 10SM SCT046 BKN050 BKN060 28/16 A3008 RMK AO2 T02770160
Loading
Personal Weather Stations






























Interactive Weather Map
Tropical Storm Tracking
New forecast layout! Learn more

10-Day Weather Forecast

Advertisements
Track Severe Weather on mobile